Time;durP1;ratioP1;P1;durP2;ratioP2;P2;SDS_P1;SDS_P2;PMS_P1;PMS_P2;Temp;Humidity;BMP_temperature;BMP_pressure;BME280_temperature;BME280_humidity;BME280_pressure;Samples;Min_cycle;Max_cycle;Signal;HPM_P1;HPM_P2
2021/11/24 00:02:09;;;;;;;10.02;3.47;;;;;;;;;;4877155;29;20071;-77
2021/11/24 00:04:40;;;;;;;6.45;3.40;;;;;;;;;;4872507;29;20099;-77
2021/11/24 00:07:09;;;;;;;7.35;2.90;;;;;;;;;;4865106;29;20110;-77
2021/11/24 00:09:38;;;;;;;7.28;3.53;;;;;;;;;;4885147;29;20065;-77
2021/11/24 00:12:08;;;;;;;5.80;2.77;;;;;;;;;;4870745;29;20074;-77
2021/11/24 00:14:38;;;;;;;5.68;3.63;;;;;;;;;;4872574;29;20061;-77
2021/11/24 00:17:07;;;;;;;14.43;3.13;;;;;;;;;;4875350;29;20572;-77
2021/11/24 00:19:39;;;;;;;6.68;3.65;;;;;;;;;;4880650;29;20057;-77
2021/11/24 00:22:09;;;;;;;5.82;3.58;;;;;;;;;;4842627;29;20065;-77
2021/11/24 00:24:39;;;;;;;6.73;3.03;;;;;;;;;;4869120;29;20549;-77
2021/11/24 00:27:08;;;;;;;5.70;2.72;;;;;;;;;;4870398;29;20496;-77
2021/11/24 00:29:37;;;;;;;7.43;3.45;;;;;;;;;;4867995;29;20062;-77
2021/11/24 00:32:06;;;;;;;6.68;3.20;;;;;;;;;;4888809;29;20063;-77
2021/11/24 00:34:35;;;;;;;5.72;3.63;;;;;;;;;;4883090;29;20408;-77
2021/11/24 00:37:04;;;;;;;9.23;3.43;;;;;;;;;;4873545;29;20498;-77
2021/11/24 00:39:34;;;;;;;10.23;4.20;;;;;;;;;;4870122;29;20154;-77
2021/11/24 00:42:04;;;;;;;4.13;2.53;;;;;;;;;;4877012;29;20113;-77
2021/11/24 00:44:33;;;;;;;9.05;3.38;;;;;;;;;;4856581;29;20170;-77
2021/11/24 00:47:02;;;;;;;7.53;3.38;;;;;;;;;;4846130;29;20108;-77
2021/11/24 00:49:31;;;;;;;5.47;2.80;;;;;;;;;;4858492;29;20439;-77
2021/11/24 00:51:59;;;;;;;9.80;3.47;;;;;;;;;;4874594;29;20488;-77
2021/11/24 00:54:31;;;;;;;6.38;2.83;;;;;;;;;;4880791;29;20505;-77
2021/11/24 00:57:25;;;;;;;4.63;2.72;;;;;;;;;;4879451;29;20147;-78
2021/11/24 00:59:56;;;;;;;7.47;3.47;;;;;;;;;;4865452;29;20078;-77
2021/11/24 01:02:25;;;;;;;5.93;2.63;;;;;;;;;;4885169;29;20234;-77
2021/11/24 01:04:54;;;;;;;8.82;3.35;;;;;;;;;;4877383;29;20059;-78
2021/11/24 01:07:23;;;;;;;8.15;3.67;;;;;;;;;;4886141;29;20143;-78
2021/11/24 01:09:52;;;;;;;8.27;4.68;;;;;;;;;;4893883;29;20467;-78
2021/11/24 01:12:22;;;;;;;9.55;3.70;;;;;;;;;;4880532;29;20088;-77
2021/11/24 01:14:52;;;;;;;5.30;3.83;;;;;;;;;;4871704;29;20542;-78
2021/11/24 01:17:22;;;;;;;7.65;3.85;;;;;;;;;;4854888;29;20474;-78
2021/11/24 01:19:51;;;;;;;9.32;4.35;;;;;;;;;;4868704;29;20101;-78
2021/11/24 01:22:20;;;;;;;8.48;3.92;;;;;;;;;;4865278;29;20073;-78
2021/11/24 01:25:14;;;;;;;7.28;3.78;;;;;;;;;;4868289;29;20071;-77
2021/11/24 01:27:44;;;;;;;15.13;3.87;;;;;;;;;;4864127;29;20613;-78
2021/11/24 01:30:14;;;;;;;8.30;3.65;;;;;;;;;;4868389;29;20089;-78
2021/11/24 01:32:44;;;;;;;9.38;4.32;;;;;;;;;;4889713;29;20080;-77
2021/11/24 01:35:13;;;;;;;8.73;3.80;;;;;;;;;;4883460;29;20060;-78
2021/11/24 01:37:41;;;;;;;8.93;3.28;;;;;;;;;;4858328;29;20062;-78
2021/11/24 01:40:12;;;;;;;7.23;2.90;;;;;;;;;;4875375;29;20459;-78
2021/11/24 01:42:42;;;;;;;5.97;3.33;;;;;;;;;;4861228;29;20093;-78
2021/11/24 01:45:11;;;;;;;9.30;3.67;;;;;;;;;;4863497;29;20151;-78
2021/11/24 01:47:39;;;;;;;12.23;3.42;;;;;;;;;;4880485;29;20088;-77
2021/11/24 01:50:10;;;;;;;5.63;2.90;;;;;;;;;;4861034;29;20120;-77
2021/11/24 01:52:39;;;;;;;5.77;2.97;;;;;;;;;;4867739;29;20076;-78
2021/11/24 01:55:08;;;;;;;7.78;3.35;;;;;;;;;;4867500;29;20160;-78
2021/11/24 01:57:38;;;;;;;12.02;3.88;;;;;;;;;;4859199;29;20121;-77
2021/11/24 02:00:08;;;;;;;7.75;3.72;;;;;;;;;;4869270;29;20095;-77
2021/11/24 02:02:42;;;;;;;8.23;4.60;;;;;;;;;;4886076;29;20076;-77
2021/11/24 02:05:14;;;;;;;6.40;3.63;;;;;;;;;;4875011;29;20077;-77
2021/11/24 02:07:43;;;;;;;9.20;3.28;;;;;;;;;;4887191;29;20082;-77
2021/11/24 02:10:13;;;;;;;6.90;3.55;;;;;;;;;;4885551;29;20098;-77
2021/11/24 02:12:42;;;;;;;6.82;3.72;;;;;;;;;;4882298;29;20159;-77
2021/11/24 02:15:12;;;;;;;9.18;3.75;;;;;;;;;;4856802;29;20105;-77
2021/11/24 02:17:41;;;;;;;5.13;2.63;;;;;;;;;;4855779;29;20071;-77
2021/11/24 02:20:16;;;;;;;7.10;3.17;;;;;;;;;;4867720;29;20062;-77
2021/11/24 02:22:45;;;;;;;7.20;3.50;;;;;;;;;;4883581;29;20063;-77
2021/11/24 02:25:14;;;;;;;8.45;4.32;;;;;;;;;;4857799;29;20058;-77
2021/11/24 02:27:43;;;;;;;8.05;3.55;;;;;;;;;;4874956;29;20081;-77
2021/11/24 02:30:16;;;;;;;8.37;3.13;;;;;;;;;;4854069;29;20098;-77
2021/11/24 02:32:46;;;;;;;6.45;3.70;;;;;;;;;;4873617;29;20060;-78
2021/11/24 02:35:16;;;;;;;6.88;3.60;;;;;;;;;;4858107;29;20056;-78
2021/11/24 02:37:44;;;;;;;12.93;3.88;;;;;;;;;;4864571;29;20510;-78
2021/11/24 02:40:14;;;;;;;9.07;4.57;;;;;;;;;;4889817;29;20524;-78
2021/11/24 02:42:44;;;;;;;13.80;4.23;;;;;;;;;;4873687;29;20093;-78
2021/11/24 02:45:13;;;;;;;6.65;3.80;;;;;;;;;;4879268;29;20486;-78
2021/11/24 02:47:42;;;;;;;12.35;5.78;;;;;;;;;;4872495;29;20117;-78
2021/11/24 02:50:11;;;;;;;10.02;5.15;;;;;;;;;;4887219;29;20092;-77
2021/11/24 02:52:41;;;;;;;17.98;4.63;;;;;;;;;;4874068;29;20153;-78
2021/11/24 02:55:10;;;;;;;11.67;5.47;;;;;;;;;;4883895;29;20506;-78
2021/11/24 02:57:41;;;;;;;7.88;4.18;;;;;;;;;;4884601;29;20131;-78
2021/11/24 03:00:13;;;;;;;12.50;5.78;;;;;;;;;;4858310;29;20450;-78
2021/11/24 03:02:43;;;;;;;8.73;4.47;;;;;;;;;;4857472;29;20089;-77
2021/11/24 03:05:12;;;;;;;8.88;4.53;;;;;;;;;;4849816;29;20081;-78
2021/11/24 03:07:43;;;;;;;7.37;4.50;;;;;;;;;;4876668;29;20427;-77
2021/11/24 03:10:12;;;;;;;9.32;4.43;;;;;;;;;;4869958;29;20069;-77
2021/11/24 03:12:41;;;;;;;6.95;3.50;;;;;;;;;;4852925;29;20538;-78
2021/11/24 03:15:11;;;;;;;15.07;4.57;;;;;;;;;;4865387;29;20068;-77
2021/11/24 03:17:40;;;;;;;9.32;4.32;;;;;;;;;;4854022;29;20084;-78
2021/11/24 03:20:12;;;;;;;7.57;4.23;;;;;;;;;;4882400;29;20500;-78
2021/11/24 03:22:45;;;;;;;6.07;3.78;;;;;;;;;;4849848;29;20089;-78
2021/11/24 03:25:14;;;;;;;15.45;5.25;;;;;;;;;;4870411;29;20500;-78
2021/11/24 03:27:43;;;;;;;7.95;4.22;;;;;;;;;;4871790;29;20092;-78
2021/11/24 03:30:13;;;;;;;9.73;4.70;;;;;;;;;;4864932;29;20524;-78
2021/11/24 03:32:42;;;;;;;8.30;5.20;;;;;;;;;;4861837;29;20521;-78
2021/11/24 03:35:14;;;;;;;9.35;4.50;;;;;;;;;;4873889;29;20555;-78
2021/11/24 03:37:44;;;;;;;10.70;4.80;;;;;;;;;;4875069;29;20067;-78
2021/11/24 03:40:15;;;;;;;10.43;5.13;;;;;;;;;;4865688;29;20052;-78
2021/11/24 03:42:46;;;;;;;16.65;5.43;;;;;;;;;;4881787;29;20096;-78
2021/11/24 03:45:15;;;;;;;10.13;5.67;;;;;;;;;;4859044;29;20527;-78
2021/11/24 03:47:47;;;;;;;12.52;4.43;;;;;;;;;;4866739;29;20082;-77
2021/11/24 03:50:16;;;;;;;10.23;4.28;;;;;;;;;;4869345;29;20545;-78
2021/11/24 03:52:46;;;;;;;9.02;4.63;;;;;;;;;;4872116;29;20070;-77
2021/11/24 03:55:17;;;;;;;8.75;4.65;;;;;;;;;;4862923;29;20067;-77
2021/11/24 03:57:46;;;;;;;11.10;4.20;;;;;;;;;;4861741;29;20063;-78
2021/11/24 04:00:17;;;;;;;12.63;4.40;;;;;;;;;;4867703;29;20506;-70
2021/11/24 04:02:46;;;;;;;8.07;4.35;;;;;;;;;;4867143;29;20065;-70
2021/11/24 04:05:14;;;;;;;10.32;5.13;;;;;;;;;;4868559;29;20145;-70
2021/11/24 04:07:43;;;;;;;9.35;3.85;;;;;;;;;;4867379;29;20128;-70
2021/11/24 04:10:13;;;;;;;9.80;5.00;;;;;;;;;;4869801;29;20151;-70
2021/11/24 04:12:44;;;;;;;6.45;3.80;;;;;;;;;;4892767;29;20078;-70
2021/11/24 04:15:15;;;;;;;11.30;5.03;;;;;;;;;;4878911;29;20090;-70
2021/11/24 04:17:43;;;;;;;9.73;4.65;;;;;;;;;;4872939;29;20064;-70
2021/11/24 04:20:15;;;;;;;8.18;3.70;;;;;;;;;;4863043;29;20068;-70
2021/11/24 04:22:44;;;;;;;7.87;4.10;;;;;;;;;;4871865;29;20520;-70
2021/11/24 04:25:14;;;;;;;10.00;4.28;;;;;;;;;;4872732;29;20118;-70
2021/11/24 04:27:45;;;;;;;6.75;3.25;;;;;;;;;;4849811;29;20164;-70
2021/11/24 04:30:15;;;;;;;9.73;4.25;;;;;;;;;;4887054;29;20148;-70
2021/11/24 04:32:44;;;;;;;9.00;5.00;;;;;;;;;;4875640;29;20499;-70
2021/11/24 04:35:12;;;;;;;8.83;4.50;;;;;;;;;;4885988;29;20571;-70
2021/11/24 04:37:41;;;;;;;9.57;4.85;;;;;;;;;;4877277;29;20092;-70
2021/11/24 04:40:10;;;;;;;6.97;4.25;;;;;;;;;;4876262;29;20068;-70
2021/11/24 04:42:41;;;;;;;5.90;3.50;;;;;;;;;;4867011;29;20117;-70
2021/11/24 04:45:12;;;;;;;6.60;4.00;;;;;;;;;;4882454;29;20049;-70
2021/11/24 04:47:42;;;;;;;9.73;3.43;;;;;;;;;;4867506;29;20080;-70
2021/11/24 04:50:12;;;;;;;7.05;4.13;;;;;;;;;;4876152;29;20146;-70
2021/11/24 04:52:40;;;;;;;9.57;3.92;;;;;;;;;;4857760;29;20067;-70
2021/11/24 04:55:10;;;;;;;6.43;3.35;;;;;;;;;;4870791;29;20064;-70
2021/11/24 04:57:40;;;;;;;7.95;2.85;;;;;;;;;;4885163;29;20072;-70
2021/11/24 05:00:11;;;;;;;4.83;2.80;;;;;;;;;;4877318;29;20057;-70
2021/11/24 05:02:42;;;;;;;9.50;3.13;;;;;;;;;;4844260;29;20149;-70
2021/11/24 05:05:11;;;;;;;6.85;3.42;;;;;;;;;;4857920;29;20483;-70
2021/11/24 05:07:42;;;;;;;5.57;2.78;;;;;;;;;;4858005;29;20063;-70
2021/11/24 05:10:11;;;;;;;12.18;4.30;;;;;;;;;;4858855;29;20067;-70
2021/11/24 05:12:40;;;;;;;10.90;3.87;;;;;;;;;;4858091;29;20071;-70
2021/11/24 05:15:13;;;;;;;7.40;2.80;;;;;;;;;;4842789;29;20068;-70
2021/11/24 05:17:45;;;;;;;7.10;3.10;;;;;;;;;;4865066;29;20065;-70
2021/11/24 05:20:17;;;;;;;9.02;3.50;;;;;;;;;;4871675;29;20071;-70
2021/11/24 05:22:48;;;;;;;5.03;3.08;;;;;;;;;;4878594;29;20068;-70
2021/11/24 05:25:18;;;;;;;11.57;4.20;;;;;;;;;;4862452;29;20098;-70
2021/11/24 05:27:47;;;;;;;5.93;3.17;;;;;;;;;;4849284;29;20153;-70
2021/11/24 05:30:15;;;;;;;7.15;3.53;;;;;;;;;;4852671;29;20192;-71
2021/11/24 05:32:46;;;;;;;6.88;3.65;;;;;;;;;;4842984;29;20113;-70
2021/11/24 05:35:14;;;;;;;7.78;3.33;;;;;;;;;;4845447;29;20086;-71
2021/11/24 05:37:43;;;;;;;9.50;5.00;;;;;;;;;;4864832;29;20071;-71
2021/11/24 05:40:13;;;;;;;7.30;3.10;;;;;;;;;;4855866;29;20160;-71
2021/11/24 05:42:47;;;;;;;14.95;5.03;;;;;;;;;;4862247;29;20096;-71
2021/11/24 05:45:26;;;;;;;9.95;4.72;;;;;;;;;;4838923;29;20079;-70
2021/11/24 05:48:02;;;;;;;7.63;3.55;;;;;;;;;;4873858;29;20070;-70
2021/11/24 05:50:55;;;;;;;6.87;4.33;;;;;;;;;;4854697;29;20077;-70
2021/11/24 05:53:24;;;;;;;8.63;3.90;;;;;;;;;;4852799;29;20107;-70
2021/11/24 05:55:53;;;;;;;7.47;3.80;;;;;;;;;;4870016;29;20126;-70
2021/11/24 05:58:23;;;;;;;10.23;3.65;;;;;;;;;;4855780;29;20074;-73
2021/11/24 06:00:52;;;;;;;10.75;3.83;;;;;;;;;;4867742;29;20466;-73
2021/11/24 06:03:22;;;;;;;5.03;2.57;;;;;;;;;;4865083;29;20167;-71
2021/11/24 06:05:52;;;;;;;9.02;3.58;;;;;;;;;;4850665;29;20046;-70
2021/11/24 06:08:21;;;;;;;7.55;3.05;;;;;;;;;;4868639;29;20160;-71
2021/11/24 06:10:50;;;;;;;11.50;3.38;;;;;;;;;;4877663;29;20061;-73
2021/11/24 06:13:21;;;;;;;8.30;4.30;;;;;;;;;;4842012;29;20072;-73
2021/11/24 06:15:51;;;;;;;8.80;4.37;;;;;;;;;;4858287;29;20063;-74
2021/11/24 06:18:20;;;;;;;7.07;3.65;;;;;;;;;;4860416;29;20164;-72
2021/11/24 06:20:51;;;;;;;7.03;3.80;;;;;;;;;;4849696;29;20092;-72
2021/11/24 06:23:20;;;;;;;5.80;3.10;;;;;;;;;;4856601;29;20158;-72
2021/11/24 06:25:49;;;;;;;8.15;3.60;;;;;;;;;;4854999;29;20068;-73
2021/11/24 06:28:18;;;;;;;6.87;3.90;;;;;;;;;;4854001;29;20143;-74
2021/11/24 06:30:47;;;;;;;8.27;3.58;;;;;;;;;;4882570;29;20080;-73
2021/11/24 06:33:16;;;;;;;8.10;3.80;;;;;;;;;;4865916;29;20065;-73
2021/11/24 06:35:45;;;;;;;10.50;4.60;;;;;;;;;;4861067;29;20128;-74
2021/11/24 06:38:16;;;;;;;7.75;3.78;;;;;;;;;;4863662;29;20061;-73
2021/11/24 06:40:45;;;;;;;10.60;4.13;;;;;;;;;;4861903;29;20083;-74
2021/11/24 06:43:14;;;;;;;7.55;3.70;;;;;;;;;;4870628;29;20076;-73
2021/11/24 06:45:42;;;;;;;7.15;3.92;;;;;;;;;;4871205;29;20097;-73
2021/11/24 06:48:11;;;;;;;7.45;3.88;;;;;;;;;;4870583;29;20054;-73
2021/11/24 06:50:40;;;;;;;6.63;3.58;;;;;;;;;;4880725;29;20136;-73
2021/11/24 06:53:09;;;;;;;13.27;4.40;;;;;;;;;;4875560;29;20080;-73
2021/11/24 06:55:40;;;;;;;8.10;4.60;;;;;;;;;;4872887;29;20385;-73
2021/11/24 06:58:11;;;;;;;18.70;5.00;;;;;;;;;;4869401;29;20593;-73
2021/11/24 07:00:41;;;;;;;8.95;4.95;;;;;;;;;;4879090;29;20089;-73
2021/11/24 07:03:09;;;;;;;11.15;4.88;;;;;;;;;;4859448;29;20085;-74
2021/11/24 07:05:38;;;;;;;14.93;5.37;;;;;;;;;;4858126;29;20088;-73
2021/11/24 07:08:07;;;;;;;8.88;5.13;;;;;;;;;;4849852;29;20503;-73
2021/11/24 07:10:36;;;;;;;7.20;4.40;;;;;;;;;;4889960;29;20677;-73
2021/11/24 07:13:06;;;;;;;10.73;5.22;;;;;;;;;;4853202;29;20068;-74
2021/11/24 07:15:59;;;;;;;9.80;4.95;;;;;;;;;;4879295;29;20645;-73
2021/11/24 07:18:34;;;;;;;12.07;6.07;;;;;;;;;;4856002;29;20561;-73
2021/11/24 07:21:04;;;;;;;12.05;5.22;;;;;;;;;;4867364;29;20587;-74
2021/11/24 07:23:35;;;;;;;10.35;5.63;;;;;;;;;;4823973;29;20397;-74
2021/11/24 07:26:07;;;;;;;8.70;4.72;;;;;;;;;;4856292;29;21126;-74
2021/11/24 07:28:37;;;;;;;10.00;4.75;;;;;;;;;;4860752;29;20567;-74
2021/11/24 07:31:10;;;;;;;7.73;4.57;;;;;;;;;;4847049;29;20088;-74
2021/11/24 07:33:40;;;;;;;10.55;5.05;;;;;;;;;;4853552;29;20173;-74
2021/11/24 07:36:09;;;;;;;17.67;5.85;;;;;;;;;;4861849;29;20420;-74
2021/11/24 07:38:37;;;;;;;11.60;4.88;;;;;;;;;;4877319;29;20077;-74
2021/11/24 07:44:03;;;;;;;12.60;4.77;;;;;;;;;;4857000;29;20082;-74
2021/11/24 07:46:32;;;;;;;9.27;4.80;;;;;;;;;;4856843;29;20091;-74
2021/11/24 07:49:01;;;;;;;12.65;5.78;;;;;;;;;;4851489;29;20114;-74
2021/11/24 07:51:30;;;;;;;11.63;4.80;;;;;;;;;;4852033;29;20092;-73
2021/11/24 07:53:58;;;;;;;8.02;4.38;;;;;;;;;;4853645;29;20509;-72
2021/11/24 07:56:27;;;;;;;9.40;5.27;;;;;;;;;;4849360;29;20090;-72
2021/11/24 07:58:58;;;;;;;9.45;4.10;;;;;;;;;;4870835;29;20097;-73
2021/11/24 08:01:30;;;;;;;13.90;4.00;;;;;;;;;;4853243;29;20529;-72
2021/11/24 08:04:00;;;;;;;8.32;4.28;;;;;;;;;;4848406;29;20086;-72
2021/11/24 08:06:29;;;;;;;8.52;3.97;;;;;;;;;;4855641;29;20599;-73
2021/11/24 08:08:58;;;;;;;8.80;3.77;;;;;;;;;;4854032;29;20170;-73
2021/11/24 08:11:27;;;;;;;7.30;3.95;;;;;;;;;;4856410;29;20173;-73
2021/11/24 08:13:56;;;;;;;5.15;2.92;;;;;;;;;;4842396;29;20055;-73
2021/11/24 08:16:26;;;;;;;9.90;3.50;;;;;;;;;;4863112;29;20625;-73
2021/11/24 08:18:57;;;;;;;5.85;3.28;;;;;;;;;;4854929;29;20709;-73
2021/11/24 08:21:26;;;;;;;7.27;2.63;;;;;;;;;;4853655;29;20191;-74
2021/11/24 08:23:56;;;;;;;8.73;2.97;;;;;;;;;;4856751;29;20087;-73
2021/11/24 08:26:26;;;;;;;6.78;2.60;;;;;;;;;;4871700;29;20087;-72
2021/11/24 08:28:56;;;;;;;6.45;2.90;;;;;;;;;;4867316;29;20091;-73
2021/11/24 08:31:25;;;;;;;7.70;2.45;;;;;;;;;;4855142;29;20522;-72
2021/11/24 08:33:54;;;;;;;6.63;3.60;;;;;;;;;;4867405;29;20098;-72
2021/11/24 08:36:24;;;;;;;3.85;2.10;;;;;;;;;;4863226;29;20176;-71
2021/11/24 08:38:58;;;;;;;7.50;2.28;;;;;;;;;;4878188;29;20084;-73
2021/11/24 08:41:44;;;;;;;6.32;2.33;;;;;;;;;;4855527;29;20093;-72
2021/11/24 08:44:14;;;;;;;6.18;2.30;;;;;;;;;;4849273;29;20098;-73
2021/11/24 08:46:43;;;;;;;4.13;2.13;;;;;;;;;;4876487;29;20079;-72
2021/11/24 08:49:12;;;;;;;6.25;2.72;;;;;;;;;;4852522;29;20090;-71
2021/11/24 08:51:42;;;;;;;4.75;2.35;;;;;;;;;;4862636;29;20170;-72
2021/11/24 08:54:12;;;;;;;9.75;3.60;;;;;;;;;;4855381;29;20117;-72
2021/11/24 08:57:06;;;;;;;4.85;2.40;;;;;;;;;;4848676;29;20172;-72
2021/11/24 08:59:58;;;;;;;11.30;2.70;;;;;;;;;;4848424;29;20171;-72
2021/11/24 09:02:28;;;;;;;4.53;3.05;;;;;;;;;;4842590;29;20091;-72
2021/11/24 09:04:57;;;;;;;5.40;2.03;;;;;;;;;;4852697;29;21443;-72
2021/11/24 09:07:27;;;;;;;4.25;2.10;;;;;;;;;;4854972;29;20422;-73
2021/11/24 09:09:56;;;;;;;10.40;2.80;;;;;;;;;;4848794;29;20553;-72
2021/11/24 09:12:24;;;;;;;5.70;2.00;;;;;;;;;;4848609;29;20991;-73
2021/11/24 09:14:53;;;;;;;4.72;2.50;;;;;;;;;;4854836;29;20179;-72
2021/11/24 09:17:23;;;;;;;7.60;2.55;;;;;;;;;;4843430;29;20544;-72
2021/11/24 09:19:52;;;;;;;6.43;2.55;;;;;;;;;;4852258;29;20097;-72
2021/11/24 09:22:41;;;;;;;6.05;2.28;;;;;;;;;;4845744;29;20121;-72
2021/11/24 09:25:14;;;;;;;5.97;2.33;;;;;;;;;;4851728;29;20119;-73
2021/11/24 09:27:49;;;;;;;6.85;2.40;;;;;;;;;;4851506;29;20092;-72
2021/11/24 09:30:18;;;;;;;6.47;2.05;;;;;;;;;;4853949;29;20177;-74
2021/11/24 09:32:47;;;;;;;4.97;2.15;;;;;;;;;;4822834;29;20089;-73
2021/11/24 09:35:16;;;;;;;4.03;1.80;;;;;;;;;;4855304;29;20092;-73
2021/11/24 09:37:46;;;;;;;3.23;1.33;;;;;;;;;;4859280;29;20083;-73
2021/11/24 09:40:15;;;;;;;2.80;1.10;;;;;;;;;;4854842;29;20113;-73
2021/11/24 09:42:46;;;;;;;4.22;1.50;;;;;;;;;;4855646;29;20097;-73
2021/11/24 09:45:18;;;;;;;3.30;1.20;;;;;;;;;;4848522;29;20100;-72
2021/11/24 09:47:48;;;;;;;2.60;1.13;;;;;;;;;;4871843;29;20120;-73
2021/11/24 09:50:22;;;;;;;3.40;1.23;;;;;;;;;;4861473;29;20087;-73
2021/11/24 09:52:55;;;;;;;3.42;1.30;;;;;;;;;;4860063;29;20098;-73
2021/11/24 09:55:24;;;;;;;2.65;1.00;;;;;;;;;;4874049;29;20195;-73
2021/11/24 09:57:54;;;;;;;2.78;1.02;;;;;;;;;;4854297;29;20094;-73
2021/11/24 10:00:25;;;;;;;3.55;0.88;;;;;;;;;;4832869;29;20091;-73
2021/11/24 10:02:56;;;;;;;3.07;0.93;;;;;;;;;;4873123;29;20110;-73
2021/11/24 10:05:25;;;;;;;2.63;0.98;;;;;;;;;;4856872;29;20171;-73
2021/11/24 10:07:56;;;;;;;2.38;0.98;;;;;;;;;;4864321;29;20140;-73
2021/11/24 10:10:26;;;;;;;4.45;0.95;;;;;;;;;;4871008;29;20118;-73
2021/11/24 10:12:55;;;;;;;4.65;1.40;;;;;;;;;;4845534;29;19962;-73
2021/11/24 10:15:44;;;;;;;12.80;1.13;;;;;;;;;;4856623;29;20132;-73
2021/11/24 10:18:15;;;;;;;2.35;0.75;;;;;;;;;;4848413;29;20088;-73
2021/11/24 10:20:48;;;;;;;3.70;0.88;;;;;;;;;;4846546;29;20088;-73
2021/11/24 10:23:22;;;;;;;2.33;0.88;;;;;;;;;;4850558;29;20095;-73
2021/11/24 10:25:52;;;;;;;3.20;0.75;;;;;;;;;;4850847;29;20094;-74
2021/11/24 10:28:26;;;;;;;5.20;0.87;;;;;;;;;;4852215;29;20088;-74
2021/11/24 10:31:23;;;;;;;1.60;0.60;;;;;;;;;;4999506;23;20112;-72
2021/11/24 10:33:52;;;;;;;1.77;0.40;;;;;;;;;;4850807;29;20083;-72
2021/11/24 10:36:22;;;;;;;2.38;0.70;;;;;;;;;;4860363;29;20190;-72
2021/11/24 10:38:53;;;;;;;2.70;0.85;;;;;;;;;;4855002;29;20078;-72
2021/11/24 10:41:46;;;;;;;2.60;1.00;;;;;;;;;;4976988;23;20066;-69
2021/11/24 10:44:47;;;;;;;4.32;0.77;;;;;;;;;;4876956;29;20059;-70
2021/11/24 10:47:19;;;;;;;2.53;0.85;;;;;;;;;;4874581;29;20172;-70
2021/11/24 10:49:50;;;;;;;3.28;1.20;;;;;;;;;;4852963;29;20178;-70
2021/11/24 10:52:20;;;;;;;3.50;0.93;;;;;;;;;;4852680;29;20093;-70
2021/11/24 10:55:04;;;;;;;3.77;1.27;;;;;;;;;;4852123;29;20081;-70
2021/11/24 10:57:33;;;;;;;2.35;0.90;;;;;;;;;;4871011;29;20223;-70
2021/11/24 11:00:06;;;;;;;2.13;0.70;;;;;;;;;;4852394;29;20079;-70
2021/11/24 11:02:36;;;;;;;2.75;1.00;;;;;;;;;;4852783;29;20084;-70
2021/11/24 11:05:13;;;;;;;2.50;0.85;;;;;;;;;;4855409;29;20087;-70
2021/11/24 11:07:43;;;;;;;2.57;0.80;;;;;;;;;;4875042;29;20533;-70
2021/11/24 11:10:16;;;;;;;2.55;0.90;;;;;;;;;;4864329;29;20532;-70
2021/11/24 11:12:46;;;;;;;2.25;0.85;;;;;;;;;;4865593;29;20063;-70
2021/11/24 11:19:03;;;;;;;3.03;1.10;;;;;;;;;;4855751;29;20072;-73
2021/11/24 11:21:36;;;;;;;2.17;0.60;;;;;;;;;;4843973;29;20084;-73
2021/11/24 11:24:07;;;;;;;4.35;1.50;;;;;;;;;;4847573;29;20118;-76
2021/11/24 11:26:37;;;;;;;3.35;1.10;;;;;;;;;;4844844;29;20572;-76
2021/11/24 11:29:06;;;;;;;4.72;1.05;;;;;;;;;;4844340;29;20111;-73
2021/11/24 11:31:36;;;;;;;11.15;1.70;;;;;;;;;;4843066;29;20496;-74
2021/11/24 11:34:05;;;;;;;2.20;0.90;;;;;;;;;;4843421;29;20404;-76
2021/11/24 11:36:37;;;;;;;3.35;1.00;;;;;;;;;;4843498;29;20065;-74
2021/11/24 11:39:05;;;;;;;4.32;1.58;;;;;;;;;;4843098;29;20068;-75
2021/11/24 11:41:36;;;;;;;4.20;1.10;;;;;;;;;;4843297;29;20098;-75
2021/11/24 11:44:27;;;;;;;3.28;1.27;;;;;;;;;;4910394;23;20073;-75
2021/11/24 11:47:16;;;;;;;3.67;1.60;;;;;;;;;;4868660;29;20562;-75
2021/11/24 11:50:05;;;;;;;3.38;1.23;;;;;;;;;;4869849;29;20422;-75
2021/11/24 11:53:00;;;;;;;4.13;1.23;;;;;;;;;;4868146;29;20102;-74
2021/11/24 11:59:17;;;;;;;2.70;1.23;;;;;;;;;;4829366;29;20088;-72
2021/11/24 12:01:57;;;;;;;3.33;1.40;;;;;;;;;;4860069;29;20514;-71
2021/11/24 12:04:28;;;;;;;3.72;1.10;;;;;;;;;;4860737;29;20061;-70
2021/11/24 12:07:08;;;;;;;3.50;1.15;;;;;;;;;;4854511;29;20057;-71
2021/11/24 12:09:43;;;;;;;2.78;1.10;;;;;;;;;;4860415;29;20105;-69
2021/11/24 12:12:22;;;;;;;3.00;1.15;;;;;;;;;;4838372;29;20465;-71
2021/11/24 12:15:02;;;;;;;4.97;1.80;;;;;;;;;;4859632;29;20143;-70
2021/11/24 12:17:55;;;;;;;3.05;1.48;;;;;;;;;;4853332;29;21469;-70
2021/11/24 12:20:39;;;;;;;2.90;1.10;;;;;;;;;;4855597;29;20214;-73
2021/11/24 12:23:28;;;;;;;3.63;1.27;;;;;;;;;;4867169;29;20088;-70
2021/11/24 12:25:58;;;;;;;4.97;1.42;;;;;;;;;;4849138;29;20049;-71
2021/11/24 12:28:35;;;;;;;5.80;1.67;;;;;;;;;;4878076;29;20081;-69
2021/11/24 12:31:18;;;;;;;3.03;1.30;;;;;;;;;;4854272;29;20090;-70
2021/11/24 12:33:53;;;;;;;3.10;1.33;;;;;;;;;;4855684;29;20090;-70
2021/11/24 12:36:24;;;;;;;4.63;1.50;;;;;;;;;;4855758;29;20085;-69
2021/11/24 12:38:55;;;;;;;4.93;1.45;;;;;;;;;;4852738;29;20674;-70
2021/11/24 12:41:25;;;;;;;4.93;1.60;;;;;;;;;;4859827;29;20100;-70
2021/11/24 12:43:57;;;;;;;2.97;1.15;;;;;;;;;;4855064;29;20546;-68
2021/11/24 12:46:26;;;;;;;4.75;1.55;;;;;;;;;;4859271;29;20070;-70
2021/11/24 12:48:58;;;;;;;4.55;1.88;;;;;;;;;;4872092;29;20182;-70
2021/11/24 12:51:28;;;;;;;3.38;1.40;;;;;;;;;;4861944;29;20598;-70
2021/11/24 12:54:00;;;;;;;4.17;1.97;;;;;;;;;;4847011;29;20083;-72
2021/11/24 12:56:54;;;;;;;3.53;1.50;;;;;;;;;;4857370;29;20087;-70
2021/11/24 12:59:24;;;;;;;2.72;0.82;;;;;;;;;;4844241;29;20152;-71
2021/11/24 13:01:54;;;;;;;8.70;1.40;;;;;;;;;;4851283;29;20081;-71
2021/11/24 13:04:25;;;;;;;3.88;1.30;;;;;;;;;;4854832;29;20084;-70
2021/11/24 13:06:56;;;;;;;3.40;1.10;;;;;;;;;;4854148;29;21338;-70
2021/11/24 13:09:26;;;;;;;3.55;1.17;;;;;;;;;;4858052;29;20097;-70
2021/11/24 13:11:58;;;;;;;4.05;1.50;;;;;;;;;;4836652;29;20173;-72
2021/11/24 13:14:30;;;;;;;3.58;1.50;;;;;;;;;;4854206;29;20554;-72
2021/11/24 13:17:12;;;;;;;2.38;1.05;;;;;;;;;;4843651;29;20084;-70
2021/11/24 13:19:47;;;;;;;3.80;1.10;;;;;;;;;;4854708;29;20089;-70
2021/11/24 13:22:17;;;;;;;4.60;1.30;;;;;;;;;;4848399;29;20114;-73
2021/11/24 13:24:48;;;;;;;3.28;1.15;;;;;;;;;;4850981;29;20624;-70
2021/11/24 13:27:16;;;;;;;4.20;1.20;;;;;;;;;;4859128;29;20179;-71
2021/11/24 13:29:45;;;;;;;3.95;1.40;;;;;;;;;;4846449;29;20080;-70
2021/11/24 13:32:15;;;;;;;3.33;1.27;;;;;;;;;;4855252;29;20117;-71
2021/11/24 13:34:45;;;;;;;3.40;1.10;;;;;;;;;;4849553;29;20086;-70
2021/11/24 13:37:14;;;;;;;3.55;1.13;;;;;;;;;;4855078;29;20420;-70
2021/11/24 13:39:44;;;;;;;4.25;1.00;;;;;;;;;;4858509;29;20143;-71
2021/11/24 13:45:13;;;;;;;2.87;1.17;;;;;;;;;;4873157;29;20064;-71
2021/11/24 13:47:43;;;;;;;5.00;1.60;;;;;;;;;;4853304;29;20617;-72
2021/11/24 13:50:13;;;;;;;3.53;1.30;;;;;;;;;;4860870;29;20088;-73
2021/11/24 13:52:41;;;;;;;5.30;1.15;;;;;;;;;;4854225;29;20563;-71
2021/11/24 13:55:18;;;;;;;3.08;1.23;;;;;;;;;;4834937;29;20083;-71
2021/11/24 13:57:48;;;;;;;3.00;1.17;;;;;;;;;;4856894;29;20101;-70
2021/11/24 14:00:19;;;;;;;10.90;1.35;;;;;;;;;;4864073;29;20175;-70
2021/11/24 14:02:48;;;;;;;4.95;1.48;;;;;;;;;;4861829;29;20169;-72
2021/11/24 14:05:19;;;;;;;3.80;1.40;;;;;;;;;;4850400;29;20174;-71
2021/11/24 14:07:49;;;;;;;2.92;1.00;;;;;;;;;;4858635;29;20128;-70
2021/11/24 14:10:20;;;;;;;3.73;1.30;;;;;;;;;;4858327;29;20139;-70
2021/11/24 14:12:51;;;;;;;3.83;1.02;;;;;;;;;;4851249;29;20077;-71
2021/11/24 14:15:21;;;;;;;3.67;1.52;;;;;;;;;;4856455;29;20088;-70
2021/11/24 14:17:51;;;;;;;3.65;1.48;;;;;;;;;;4836539;29;20097;-70
2021/11/24 14:20:27;;;;;;;6.85;1.33;;;;;;;;;;4850073;29;20684;-70
2021/11/24 14:22:58;;;;;;;2.73;1.10;;;;;;;;;;4857140;29;20088;-71
2021/11/24 14:25:32;;;;;;;4.95;1.90;;;;;;;;;;4851209;29;20041;-70
2021/11/24 14:28:02;;;;;;;3.72;1.10;;;;;;;;;;4853770;29;20086;-70
2021/11/24 14:30:36;;;;;;;4.85;1.13;;;;;;;;;;4839432;29;20594;-71
2021/11/24 14:33:05;;;;;;;6.07;2.08;;;;;;;;;;4867678;29;20181;-71
2021/11/24 14:35:35;;;;;;;3.10;1.07;;;;;;;;;;4860348;29;20083;-71
2021/11/24 14:38:04;;;;;;;4.15;1.05;;;;;;;;;;4996708;23;20098;-70
2021/11/24 14:40:34;;;;;;;2.92;1.02;;;;;;;;;;4865946;29;20427;-69
2021/11/24 14:43:05;;;;;;;3.55;1.40;;;;;;;;;;4867740;29;20128;-71
2021/11/24 14:45:35;;;;;;;3.13;1.30;;;;;;;;;;4865063;29;20209;-73
2021/11/24 14:48:04;;;;;;;5.97;1.90;;;;;;;;;;4868823;29;20451;-70
2021/11/24 14:50:35;;;;;;;4.03;1.27;;;;;;;;;;4877266;29;20179;-70
2021/11/24 14:53:04;;;;;;;2.30;0.80;;;;;;;;;;4874910;29;20121;-70
2021/11/24 14:55:53;;;;;;;5.13;1.67;;;;;;;;;;4881330;29;20093;-70
2021/11/24 14:58:23;;;;;;;3.65;1.30;;;;;;;;;;4876969;29;20175;-70
2021/11/24 15:01:17;;;;;;;4.23;1.80;;;;;;;;;;4872457;29;20580;-72
2021/11/24 15:03:47;;;;;;;3.17;1.48;;;;;;;;;;4893640;29;20209;-69
2021/11/24 15:06:17;;;;;;;4.82;1.50;;;;;;;;;;4846227;29;20104;-71
2021/11/24 15:08:45;;;;;;;3.85;1.33;;;;;;;;;;4874843;29;20080;-68
2021/11/24 15:11:14;;;;;;;4.72;2.15;;;;;;;;;;4887930;29;20088;-70
2021/11/24 15:13:49;;;;;;;4.57;2.00;;;;;;;;;;4864906;29;20078;-70
2021/11/24 15:16:19;;;;;;;5.13;1.17;;;;;;;;;;4875354;29;20651;-69
2021/11/24 15:19:09;;;;;;;5.78;1.40;;;;;;;;;;4896204;29;20080;-71
2021/11/24 15:21:39;;;;;;;6.47;1.48;;;;;;;;;;4880439;29;20172;-68